Time;durP1;ratioP1;P1;durP2;ratioP2;P2;SDS_P1;SDS_P2;PMS_P1;PMS_P2;Temp;Humidity;BMP_temperature;BMP_pressure;BME280_temperature;BME280_humidity;BME280_pressure;Samples;Min_cycle;Max_cycle;Signal;HPM_P1;HPM_P2
2024/01/15 17:25:07;;;;;;;61.90;53.73;;;8.30;56.70;;;;;;5090836;27;21159;-81
2024/01/15 17:27:37;;;;;;;52.27;46.57;;;8.40;58.50;;;;;;5085600;28;20304;-80
2024/01/15 17:30:05;;;;;;;59.20;49.17;;;8.60;59.40;;;;;;5084118;28;20204;-78
2024/01/15 17:32:32;;;;;;;53.43;47.90;;;8.80;60.20;;;;;;5065464;28;20199;-81
2024/01/15 17:34:59;;;;;;;54.30;47.47;;;9.00;61.30;;;;;;5072978;28;20216;-81
2024/01/15 17:37:26;;;;;;;60.93;48.90;;;9.20;62.30;;;;;;5084725;28;20697;-82
2024/01/15 17:39:53;;;;;;;57.17;46.73;;;9.50;63.20;;;;;;5084924;28;20224;-80
2024/01/15 17:42:22;;;;;;;52.43;46.33;;;9.90;64.40;;;;;;5085553;28;20317;-83
2024/01/15 17:44:49;;;;;;;58.23;46.97;;;10.20;64.10;;;;;;5084698;28;20342;-81
2024/01/15 17:47:18;;;;;;;54.97;46.30;;;10.50;64.50;;;;;;5064714;28;20203;-78
2024/01/15 17:49:45;;;;;;;59.67;53.27;;;10.90;65.20;;;;;;5064854;28;20285;-80
2024/01/15 17:52:12;;;;;;;55.03;43.70;;;11.30;65.70;;;;;;5078497;28;20348;-78
2024/01/15 17:54:39;;;;;;;84.73;59.27;;;11.80;66.20;;;;;;5083864;28;20209;-78
2024/01/15 17:57:05;;;;;;;57.33;45.90;;;12.20;66.50;;;;;;5081193;28;20302;-73
2024/01/15 17:59:34;;;;;;;77.97;46.10;;;12.60;66.80;;;;;;5080479;28;20295;-75
2024/01/15 18:02:01;;;;;;;62.93;42.87;;;13.00;67.10;;;;;;5070540;28;20202;-75
2024/01/15 18:04:28;;;;;;;58.23;48.20;;;13.40;67.10;;;;;;5081043;28;20220;-74
2024/01/15 18:06:55;;;;;;;59.90;45.27;;;13.80;67.20;;;;;;5084611;28;20293;-75
2024/01/15 18:09:22;;;;;;;68.40;50.43;;;14.20;67.20;;;;;;5084069;28;20678;-77
2024/01/15 18:11:49;;;;;;;42.23;37.87;;;14.60;67.40;;;;;;5088030;28;20213;-74
2024/01/15 18:14:16;;;;;;;58.17;39.27;;;15.00;67.40;;;;;;5095169;28;20209;-72
2024/01/15 18:16:48;;;;;;;53.53;46.57;;;15.40;67.40;;;;;;5105083;28;20297;-74
2024/01/15 18:19:17;;;;;;;54.00;44.37;;;15.70;67.40;;;;;;5087586;28;20204;-75
2024/01/15 18:21:44;;;;;;;55.33;40.93;;;16.10;67.20;;;;;;5066523;28;20246;-73
2024/01/15 18:24:11;;;;;;;52.27;32.63;;;16.40;67.60;;;;;;5063894;28;20232;-71
2024/01/15 18:26:39;;;;;;;46.53;32.03;;;16.80;67.50;;;;;;5073199;28;20278;-74
2024/01/15 18:29:06;;;;;;;53.53;37.57;;;17.10;67.50;;;;;;5084066;28;20290;-71
2024/01/15 18:31:33;;;;;;;53.13;35.60;;;17.30;67.40;;;;;;5084400;28;20273;-72
2024/01/15 18:34:02;;;;;;;45.27;31.77;;;17.70;67.60;;;;;;5083731;28;20635;-73
2024/01/15 18:36:29;;;;;;;48.10;32.93;;;18.00;67.70;;;;;;5069033;28;20290;-72
2024/01/15 18:38:58;;;;;;;47.03;32.73;;;18.20;67.60;;;;;;5070691;28;20191;-72
2024/01/15 18:41:25;;;;;;;52.20;33.17;;;18.50;67.50;;;;;;5063755;28;20240;-76
2024/01/15 18:43:52;;;;;;;54.53;32.43;;;18.70;67.50;;;;;;5052584;28;20243;-68
2024/01/15 18:46:20;;;;;;;62.03;33.17;;;19.00;67.60;;;;;;5057688;28;20195;-69
2024/01/15 18:48:47;;;;;;;78.07;33.67;;;19.20;67.60;;;;;;5050094;28;20246;-70
2024/01/15 18:51:21;;;;;;;43.03;29.33;;;19.40;67.50;;;;;;5050446;28;20209;-72
2024/01/15 18:53:48;;;;;;;44.03;30.17;;;19.70;68.00;;;;;;5058383;28;20229;-72
2024/01/15 18:56:15;;;;;;;48.33;34.73;;;19.90;67.60;;;;;;5070292;28;20203;-75
2024/01/15 18:58:42;;;;;;;53.10;35.73;;;20.10;67.60;;;;;;5069907;28;20261;-76
2024/01/15 19:01:11;;;;;;;47.07;36.80;;;20.30;67.70;;;;;;5069997;28;20210;-73
2024/01/15 19:03:38;;;;;;;62.33;39.10;;;20.50;67.70;;;;;;5069660;28;20225;-74
2024/01/15 19:06:05;;;;;;;53.23;37.83;;;20.70;67.70;;;;;;5051268;28;20214;-71
2024/01/15 19:08:34;;;;;;;54.47;33.43;;;20.80;66.50;;;;;;5061710;28;20671;-76
2024/01/15 19:11:01;;;;;;;49.37;35.80;;;21.00;66.70;;;;;;5059746;28;20214;-77
2024/01/15 19:13:28;;;;;;;93.60;40.80;;;21.10;66.90;;;;;;5051088;28;20211;-76
2024/01/15 19:15:55;;;;;;;49.33;28.93;;;21.30;66.60;;;;;;5061990;28;20226;-81
2024/01/15 19:18:22;;;;;;;39.33;28.40;;;21.50;66.60;;;;;;5069631;28;20213;-88
2024/01/15 19:20:48;;;;;;;43.00;29.37;;;21.60;66.70;;;;;;5069617;28;20297;-89
2024/01/15 19:23:15;;;;;;;52.17;28.47;;;21.70;66.70;;;;;;5069782;28;20298;-85
2024/01/15 19:25:44;;;;;;;52.80;31.07;;;21.80;66.60;;;;;;5069890;28;20297;-85
2024/01/15 19:28:11;;;;;;;49.87;34.00;;;22.00;66.60;;;;;;5063928;28;20202;-74
2024/01/15 19:30:38;;;;;;;44.83;29.53;;;22.10;66.50;;;;;;5070201;28;20282;-79
2024/01/15 19:33:05;;;;;;;51.63;30.80;;;22.20;66.20;;;;;;5069233;28;20277;-76
2024/01/15 19:35:32;;;;;;;47.17;31.03;;;22.30;65.90;;;;;;5069335;28;20655;-78
2024/01/15 19:38:01;;;;;;;45.47;29.97;;;22.40;65.70;;;;;;5069482;28;20219;-77
2024/01/15 19:40:28;;;;;;;46.37;26.07;;;22.50;65.60;;;;;;5069297;28;20243;-81
2024/01/15 19:42:57;;;;;;;52.50;32.77;;;22.60;65.40;;;;;;5069204;28;20756;-74
2024/01/15 19:45:24;;;;;;;35.93;25.90;;;22.70;65.00;;;;;;5056070;28;20231;-72
2024/01/15 19:47:51;;;;;;;49.37;27.83;;;22.80;64.70;;;;;;5047678;28;20295;-76
2024/01/15 19:50:18;;;;;;;48.93;28.17;;;22.90;65.20;;;;;;5052297;28;20252;-75
2024/01/15 19:52:45;;;;;;;46.40;29.80;;;23.00;64.30;;;;;;5068762;28;20203;-83
2024/01/15 19:55:12;;;;;;;47.53;26.93;;;23.10;64.20;;;;;;5063467;28;20214;-87
2024/01/15 19:57:39;;;;;;;43.73;32.03;;;23.10;63.50;;;;;;5050084;28;20693;-80
2024/01/15 20:00:09;;;;;;;51.17;34.83;;;23.20;63.40;;;;;;5064456;28;20283;-81
2024/01/15 20:02:36;;;;;;;39.03;26.93;;;23.30;63.20;;;;;;5053755;28;20222;-87
2024/01/15 20:05:03;;;;;;;43.43;26.30;;;23.40;63.20;;;;;;5048675;28;20324;-87
2024/01/15 20:07:30;;;;;;;42.47;26.43;;;23.50;62.90;;;;;;5053318;28;20305;-84
2024/01/15 20:09:57;;;;;;;45.33;26.67;;;23.50;62.50;;;;;;5068627;28;20205;-84
2024/01/15 20:12:23;;;;;;;40.93;24.80;;;23.60;62.30;;;;;;5064059;28;20196;-78
2024/01/15 20:14:50;;;;;;;39.73;9.80;;;23.60;62.00;;;;;;5057877;28;20216;-78
2024/01/15 20:17:19;;;;;;;45.60;10.20;;;23.70;62.10;;;;;;5060476;28;20196;-79
2024/01/15 20:19:46;;;;;;;41.13;10.40;;;23.70;62.00;;;;;;5057255;28;20326;-78
2024/01/15 20:22:13;;;;;;;50.83;10.50;;;23.80;62.20;;;;;;5067582;28;20308;-77
2024/01/15 20:24:40;;;;;;;44.27;10.43;;;23.80;62.10;;;;;;5067218;28;20602;-77
2024/01/15 20:27:07;;;;;;;44.93;9.43;;;23.80;61.80;;;;;;5067516;28;20231;-79
2024/01/15 20:29:35;;;;;;;42.43;9.47;;;23.90;61.60;;;;;;5068192;28;20253;-79
2024/01/15 20:32:02;;;;;;;34.03;8.70;;;24.00;61.50;;;;;;5068311;28;20208;-80
2024/01/15 20:34:31;;;;;;;39.57;9.57;;;24.00;61.30;;;;;;5053968;28;20723;-80
2024/01/15 20:36:58;;;;;;;47.50;11.07;;;24.10;61.70;;;;;;5050038;28;20211;-77
2024/01/15 20:39:25;;;;;;;56.77;10.63;;;24.10;61.00;;;;;;5058865;28;20291;-78
2024/01/15 20:41:52;;;;;;;34.30;9.60;;;24.10;60.70;;;;;;5067736;28;20282;-77
2024/01/15 20:44:21;;;;;;;49.20;11.07;;;24.20;60.70;;;;;;5067093;28;20325;-75
2024/01/15 20:46:47;;;;;;;38.23;9.80;;;24.20;60.40;;;;;;5066078;28;20585;-76
2024/01/15 20:49:14;;;;;;;76.97;12.93;;;24.20;60.20;;;;;;5062997;28;20211;-76
2024/01/15 20:51:42;;;;;;;41.30;9.53;;;24.20;60.10;;;;;;5048399;28;20196;-75
2024/01/15 20:54:10;;;;;;;38.03;8.67;;;24.20;59.80;;;;;;5061011;28;20291;-76
2024/01/15 20:56:36;;;;;;;39.03;9.93;;;24.30;59.80;;;;;;5064527;28;20207;-75
2024/01/15 20:59:03;;;;;;;61.83;10.97;;;24.30;59.60;;;;;;5062364;28;20218;-76
2024/01/15 21:01:30;;;;;;;37.70;9.03;;;24.30;59.60;;;;;;5062366;28;20234;-76
2024/01/15 21:03:57;;;;;;;32.70;8.77;;;24.30;59.40;;;;;;5065906;28;20207;-75
2024/01/15 21:06:24;;;;;;;73.67;11.00;;;24.30;59.20;;;;;;5051469;28;20295;-75
2024/01/15 21:08:53;;;;;;;42.13;10.27;;;24.40;59.20;;;;;;5061936;28;20210;-76
2024/01/15 21:11:19;;;;;;;43.90;9.03;;;24.40;59.20;;;;;;5057682;28;20297;-75
2024/01/15 21:13:46;;;;;;;104.70;13.60;;;24.40;59.20;;;;;;5062779;28;20203;-76
2024/01/15 21:16:13;;;;;;;32.97;8.87;;;24.40;59.20;;;;;;5055715;28;20204;-77
2024/01/15 21:18:41;;;;;;;73.23;11.43;;;24.40;59.00;;;;;;5058100;28;20565;-75
2024/01/15 21:21:08;;;;;;;35.27;11.73;;;24.40;58.80;;;;;;5059989;28;20297;-75
2024/01/15 21:23:35;;;;;;;37.47;8.50;;;24.40;58.80;;;;;;5062336;28;20207;-75
2024/01/15 21:26:03;;;;;;;35.57;8.43;;;24.40;58.60;;;;;;5066135;28;20310;-77
2024/01/15 21:28:30;;;;;;;43.70;9.30;;;24.40;58.40;;;;;;5048039;28;20192;-75
2024/01/15 21:30:59;;;;;;;44.50;10.97;;;24.40;58.50;;;;;;5063312;28;20203;-77
2024/01/15 21:33:27;;;;;;;33.60;9.67;;;24.40;58.50;;;;;;5067584;28;20215;-75
2024/01/15 21:35:54;;;;;;;41.23;9.23;;;24.40;58.20;;;;;;5067506;28;20207;-76
2024/01/15 21:38:21;;;;;;;34.00;9.00;;;24.40;58.10;;;;;;5067542;28;20202;-75
2024/01/15 21:40:48;;;;;;;50.63;9.70;;;24.40;58.10;;;;;;5064881;28;20298;-76
2024/01/15 21:43:16;;;;;;;42.33;9.90;;;24.40;58.00;;;;;;5067456;28;20205;-78
2024/01/15 21:45:43;;;;;;;38.60;9.27;;;24.40;57.80;;;;;;5067439;28;20700;-78
2024/01/15 21:48:10;;;;;;;40.67;8.80;;;24.40;57.80;;;;;;5067515;28;20279;-78
2024/01/15 21:50:37;;;;;;;30.43;8.20;;;24.50;57.80;;;;;;5055648;28;20210;-78
2024/01/15 21:53:04;;;;;;;38.10;10.70;;;24.40;57.70;;;;;;5046713;28;20295;-79
2024/01/15 21:55:31;;;;;;;40.27;12.63;;;24.50;57.70;;;;;;5062491;28;20660;-77
2024/01/15 21:57:58;;;;;;;37.27;13.17;;;24.50;56.60;;;;;;5066367;28;20220;-76
2024/01/15 22:00:27;;;;;;;41.57;9.10;;;24.40;56.00;;;;;;5055544;28;20213;-77
2024/01/15 22:02:54;;;;;;;33.70;8.63;;;24.40;56.20;;;;;;5064294;28;20214;-76
2024/01/15 22:05:21;;;;;;;37.80;9.33;;;24.40;56.60;;;;;;5065913;28;20251;-76
2024/01/15 22:07:48;;;;;;;31.53;8.00;;;24.40;56.90;;;;;;5065760;28;20260;-75
2024/01/15 22:10:15;;;;;;;43.67;9.37;;;24.40;56.90;;;;;;5061970;28;20652;-77
2024/01/15 22:12:42;;;;;;;36.80;8.77;;;24.40;57.00;;;;;;5064984;28;20204;-78
2024/01/15 22:15:10;;;;;;;62.77;10.27;;;24.40;57.00;;;;;;5052194;28;20200;-76
2024/01/15 22:17:39;;;;;;;63.70;11.73;;;24.40;57.00;;;;;;5066313;28;20196;-76
2024/01/15 22:20:08;;;;;;;38.20;9.57;;;24.40;57.00;;;;;;5069353;28;20286;-76
2024/01/15 22:22:35;;;;;;;56.67;10.20;;;24.40;57.00;;;;;;5066423;28;21218;-79
2024/01/15 22:25:02;;;;;;;72.47;10.80;;;24.40;57.00;;;;;;5063746;28;20647;-80
2024/01/15 22:27:29;;;;;;;59.03;9.83;;;24.50;57.00;;;;;;5059664;28;20287;-79
2024/01/15 22:29:56;;;;;;;39.23;9.43;;;24.40;56.90;;;;;;5063811;28;20207;-77
2024/01/15 22:32:23;;;;;;;42.13;9.40;;;24.50;56.80;;;;;;5067577;28;20282;-77
2024/01/15 22:34:52;;;;;;;41.93;9.17;;;24.50;56.80;;;;;;5068274;28;20199;-80
2024/01/15 22:37:18;;;;;;;40.93;9.23;;;24.40;56.50;;;;;;5067284;28;20287;-80
2024/01/15 22:39:45;;;;;;;41.10;8.80;;;24.50;56.70;;;;;;5065347;28;20286;-79
2024/01/15 22:42:12;;;;;;;43.33;9.93;;;24.50;56.70;;;;;;5065154;28;20278;-75
2024/01/15 22:44:39;;;;;;;36.10;8.37;;;24.40;56.50;;;;;;5064980;28;20667;-76
2024/01/15 22:47:06;;;;;;;35.93;8.03;;;24.50;56.60;;;;;;5065545;28;20227;-77
2024/01/15 22:49:33;;;;;;;39.40;9.73;;;24.50;56.50;;;;;;5069824;28;20199;-79
2024/01/15 22:52:03;;;;;;;42.00;9.10;;;24.50;56.40;;;;;;5069765;28;20293;-82
2024/01/15 22:54:30;;;;;;;80.00;12.10;;;24.50;56.30;;;;;;5052130;28;20211;-79
2024/01/15 22:56:57;;;;;;;38.23;9.63;;;24.50;56.40;;;;;;5060944;28;20300;-80
2024/01/15 22:59:24;;;;;;;39.07;8.67;;;24.50;56.30;;;;;;5069626;28;20195;-80
2024/01/15 23:01:50;;;;;;;40.53;9.40;;;24.50;56.90;;;;;;5067769;28;20286;-80
2024/01/15 23:04:18;;;;;;;66.07;11.10;;;24.50;56.20;;;;;;5068049;28;20238;-80
2024/01/15 23:06:45;;;;;;;55.00;9.97;;;24.50;56.00;;;;;;5057348;28;20211;-82
2024/01/15 23:09:14;;;;;;;41.10;9.73;;;24.50;56.00;;;;;;5069194;28;20238;-81
2024/01/15 23:11:41;;;;;;;85.43;11.27;;;24.50;55.90;;;;;;5063728;28;20747;-79
2024/01/15 23:14:08;;;;;;;69.70;10.87;;;24.50;55.90;;;;;;5058572;28;20214;-82
2024/01/15 23:16:35;;;;;;;54.13;11.37;;;24.50;55.90;;;;;;5051253;28;20287;-80
2024/01/15 23:19:02;;;;;;;41.43;9.80;;;24.60;55.70;;;;;;5053413;28;20311;-80
2024/01/15 23:21:29;;;;;;;68.23;11.30;;;24.60;55.70;;;;;;5066592;28;20200;-77
2024/01/15 23:23:56;;;;;;;32.50;7.77;;;24.60;55.80;;;;;;5066537;28;20299;-81
2024/01/15 23:26:25;;;;;;;72.37;11.13;;;24.60;55.80;;;;;;5059819;28;20321;-78
2024/01/15 23:28:52;;;;;;;36.30;9.67;;;24.60;55.50;;;;;;5068679;28;20314;-80
2024/01/15 23:31:18;;;;;;;34.27;8.53;;;24.60;55.60;;;;;;5068780;28;20199;-78
2024/01/15 23:33:45;;;;;;;33.87;9.57;;;24.60;55.60;;;;;;5068680;28;20207;-79
2024/01/15 23:36:12;;;;;;;57.63;9.47;;;24.60;55.50;;;;;;5068650;28;20227;-77
2024/01/15 23:38:40;;;;;;;64.63;10.90;;;24.60;55.50;;;;;;5064773;28;20660;-77
2024/01/15 23:41:09;;;;;;;37.43;9.57;;;24.60;55.40;;;;;;5068167;28;20202;-77
2024/01/15 23:43:39;;;;;;;31.20;8.10;;;24.60;55.30;;;;;;5063779;28;20254;-79
2024/01/15 23:46:06;;;;;;;35.00;8.50;;;24.60;55.10;;;;;;5061233;28;20215;-76
2024/01/15 23:48:33;;;;;;;55.63;9.90;;;24.60;55.30;;;;;;5067444;28;20200;-78
2024/01/15 23:51:02;;;;;;;51.30;10.00;;;24.60;55.20;;;;;;5069603;28;20281;-76
2024/01/15 23:53:29;;;;;;;35.73;8.70;;;24.60;55.20;;;;;;5068759;28;20915;-77
2024/01/15 23:55:56;;;;;;;55.27;10.07;;;24.60;55.10;;;;;;5067016;28;20367;-80
2024/01/15 23:58:23;;;;;;;39.80;9.37;;;24.60;55.00;;;;;;5056231;28;20228;-78
